sensor_id;sensor_type;location;lat;lon;timestamp;pressure;altitude;pressure_sealevel;temperature;humidity
75996;BME280;64681;49.738;9.004;2022-12-16T00:00:23;98435.19;;;-2.10;72.68
75996;BME280;64681;49.738;9.004;2022-12-16T00:02:49;98462.75;;;-1.78;71.57
75996;BME280;64681;49.738;9.004;2022-12-16T00:05:15;98420.44;;;-2.51;72.41
75996;BME280;64681;49.738;9.004;2022-12-16T00:07:41;98446.22;;;-2.18;71.96
75996;BME280;64681;49.738;9.004;2022-12-16T00:10:07;98465.31;;;-2.18;72.87
75996;BME280;64681;49.738;9.004;2022-12-16T00:12:33;98397.47;;;-2.59;72.23
75996;BME280;64681;49.738;9.004;2022-12-16T00:14:59;98454.66;;;-2.37;73.04
75996;BME280;64681;49.738;9.004;2022-12-16T00:17:25;98444.22;;;-2.42;72.61
75996;BME280;64681;49.738;9.004;2022-12-16T00:19:51;98460.69;;;-2.47;73.45
75996;BME280;64681;49.738;9.004;2022-12-16T00:22:16;98446.88;;;-2.58;73.35
75996;BME280;64681;49.738;9.004;2022-12-16T00:24:42;98399.13;;;-3.05;74.93
75996;BME280;64681;49.738;9.004;2022-12-16T00:27:07;98465.06;;;-2.32;73.27
75996;BME280;64681;49.738;9.004;2022-12-16T00:29:33;98424.44;;;-2.74;72.53
75996;BME280;64681;49.738;9.004;2022-12-16T00:32:04;98434.06;;;-2.64;72.92
75996;BME280;64681;49.738;9.004;2022-12-16T00:34:30;98461.50;;;-2.62;73.02
75996;BME280;64681;49.738;9.004;2022-12-16T00:36:57;98402.00;;;-3.01;72.49
75996;BME280;64681;49.738;9.004;2022-12-16T00:39:23;98440.09;;;-2.69;72.67
75996;BME280;64681;49.738;9.004;2022-12-16T00:41:49;98468.88;;;-2.90;73.47
75996;BME280;64681;49.738;9.004;2022-12-16T00:44:15;98473.53;;;-2.87;73.57
75996;BME280;64681;49.738;9.004;2022-12-16T00:46:41;98478.00;;;-3.08;74.13
75996;BME280;64681;49.738;9.004;2022-12-16T00:49:06;98436.72;;;-3.62;75.02
75996;BME280;64681;49.738;9.004;2022-12-16T00:51:32;98468.06;;;-3.26;74.13
75996;BME280;64681;49.738;9.004;2022-12-16T00:53:58;98491.56;;;-3.31;74.26
75996;BME280;64681;49.738;9.004;2022-12-16T00:56:23;98499.56;;;-3.79;76.34
75996;BME280;64681;49.738;9.004;2022-12-16T00:58:49;98486.81;;;-3.71;76.31
75996;BME280;64681;49.738;9.004;2022-12-16T01:01:15;98449.66;;;-4.04;75.93
75996;BME280;64681;49.738;9.004;2022-12-16T01:03:41;98503.28;;;-3.50;75.33
75996;BME280;64681;49.738;9.004;2022-12-16T01:06:13;98504.88;;;-3.02;73.67
75996;BME280;64681;49.738;9.004;2022-12-16T01:08:39;98487.34;;;-3.69;73.82
75996;BME280;64681;49.738;9.004;2022-12-16T01:11:05;98517.34;;;-4.30;77.13
75996;BME280;64681;49.738;9.004;2022-12-16T01:13:31;98515.50;;;-4.34;77.65
75996;BME280;64681;49.738;9.004;2022-12-16T01:16:01;98477.34;;;-4.94;78.42
75996;BME280;64681;49.738;9.004;2022-12-16T01:18:27;98525.19;;;-4.24;77.13
75996;BME280;64681;49.738;9.004;2022-12-16T01:20:52;98530.75;;;-4.05;76.12
75996;BME280;64681;49.738;9.004;2022-12-16T01:23:18;98524.31;;;-3.82;75.44
75996;BME280;64681;49.738;9.004;2022-12-16T01:25:44;98541.06;;;-3.68;75.08
75996;BME280;64681;49.738;9.004;2022-12-16T01:28:10;98533.22;;;-3.68;74.05
75996;BME280;64681;49.738;9.004;2022-12-16T01:30:35;98538.44;;;-3.68;74.24
75996;BME280;64681;49.738;9.004;2022-12-16T01:33:01;98514.47;;;-3.64;73.88
75996;BME280;64681;49.738;9.004;2022-12-16T01:35:26;98531.47;;;-3.52;74.53
75996;BME280;64681;49.738;9.004;2022-12-16T01:37:52;98432.59;;;-4.37;74.29
75996;BME280;64681;49.738;9.004;2022-12-16T01:40:21;98493.56;;;-4.38;75.38
75996;BME280;64681;49.738;9.004;2022-12-16T01:42:48;98541.25;;;-3.85;75.01
75996;BME280;64681;49.738;9.004;2022-12-16T01:45:34;98527.50;;;-3.70;73.70
75996;BME280;64681;49.738;9.004;2022-12-16T01:48:13;98565.25;;;-3.88;74.39
75996;BME280;64681;49.738;9.004;2022-12-16T01:50:43;98547.91;;;-4.15;75.46
75996;BME280;64681;49.738;9.004;2022-12-16T01:53:09;98558.13;;;-4.46;76.89
75996;BME280;64681;49.738;9.004;2022-12-16T01:55:43;98559.22;;;-4.41;76.49
75996;BME280;64681;49.738;9.004;2022-12-16T01:58:20;98555.16;;;-4.97;78.40
75996;BME280;64681;49.738;9.004;2022-12-16T02:00:47;98556.91;;;-5.30;79.61
75996;BME280;64681;49.738;9.004;2022-12-16T02:03:13;98559.44;;;-5.41;80.01
75996;BME280;64681;49.738;9.004;2022-12-16T02:05:42;98463.44;;;-5.92;79.88
75996;BME280;64681;49.738;9.004;2022-12-16T02:30:50;98541.56;;;-5.32;76.92
75996;BME280;64681;49.738;9.004;2022-12-16T02:41:25;98531.59;;;-5.40;77.25
75996;BME280;64681;49.738;9.004;2022-12-16T02:44:02;98540.16;;;-5.40;77.36
75996;BME280;64681;49.738;9.004;2022-12-16T02:46:32;98540.97;;;-5.61;77.84
75996;BME280;64681;49.738;9.004;2022-12-16T02:49:08;98474.16;;;-6.10;77.84
75996;BME280;64681;49.738;9.004;2022-12-16T02:51:36;98489.19;;;-5.90;76.96
75996;BME280;64681;49.738;9.004;2022-12-16T02:54:05;98469.47;;;-6.36;78.85
75996;BME280;64681;49.738;9.004;2022-12-16T02:56:52;98519.25;;;-5.99;77.99
75996;BME280;64681;49.738;9.004;2022-12-16T03:04:52;98542.38;;;-6.59;80.77
75996;BME280;64681;49.738;9.004;2022-12-16T03:07:23;98471.25;;;-6.92;80.90
75996;BME280;64681;49.738;9.004;2022-12-16T03:09:52;98555.03;;;-6.07;79.12
75996;BME280;64681;49.738;9.004;2022-12-16T03:12:21;98483.28;;;-6.69;78.38
75996;BME280;64681;49.738;9.004;2022-12-16T03:14:51;98565.25;;;-6.73;79.88
75996;BME280;64681;49.738;9.004;2022-12-16T03:17:20;98536.00;;;-7.32;81.73
75996;BME280;64681;49.738;9.004;2022-12-16T03:20:20;98552.50;;;-7.09;81.49
75996;BME280;64681;49.738;9.004;2022-12-16T03:22:47;98545.66;;;-6.81;80.12
75996;BME280;64681;49.738;9.004;2022-12-16T03:25:20;98550.09;;;-6.64;78.49
75996;BME280;64681;49.738;9.004;2022-12-16T03:28:03;98561.00;;;-6.62;78.57
75996;BME280;64681;49.738;9.004;2022-12-16T03:30:41;98541.19;;;-6.52;77.45
75996;BME280;64681;49.738;9.004;2022-12-16T03:33:25;98525.59;;;-6.69;77.31
75996;BME280;64681;49.738;9.004;2022-12-16T03:36:02;98555.63;;;-6.39;77.08
75996;BME280;64681;49.738;9.004;2022-12-16T03:38:32;98559.22;;;-6.79;78.21
75996;BME280;64681;49.738;9.004;2022-12-16T03:41:01;98571.06;;;-6.66;78.62
75996;BME280;64681;49.738;9.004;2022-12-16T03:43:28;98560.22;;;-6.46;77.22
75996;BME280;64681;49.738;9.004;2022-12-16T03:46:01;98565.78;;;-6.54;77.21
75996;BME280;64681;49.738;9.004;2022-12-16T03:48:28;98558.25;;;-6.56;76.83
75996;BME280;64681;49.738;9.004;2022-12-16T03:50:54;98539.78;;;-6.76;76.57
75996;BME280;64681;49.738;9.004;2022-12-16T03:53:19;98574.63;;;-6.72;77.51
75996;BME280;64681;49.738;9.004;2022-12-16T03:55:48;98553.91;;;-7.01;78.12
75996;BME280;64681;49.738;9.004;2022-12-16T03:58:14;98567.38;;;-6.87;77.93
75996;BME280;64681;49.738;9.004;2022-12-16T04:00:39;98573.97;;;-6.96;78.33
75996;BME280;64681;49.738;9.004;2022-12-16T04:03:05;98568.91;;;-7.49;78.79
75996;BME280;64681;49.738;9.004;2022-12-16T04:05:30;98591.97;;;-7.36;79.39
75996;BME280;64681;49.738;9.004;2022-12-16T04:07:56;98578.56;;;-7.44;79.13
75996;BME280;64681;49.738;9.004;2022-12-16T04:10:22;98581.28;;;-7.51;78.81
75996;BME280;64681;49.738;9.004;2022-12-16T04:13:08;98574.84;;;-7.89;80.63
75996;BME280;64681;49.738;9.004;2022-12-16T04:15:53;98595.66;;;-7.32;77.99
75996;BME280;64681;49.738;9.004;2022-12-16T04:18:39;98590.28;;;-7.13;77.24
75996;BME280;64681;49.738;9.004;2022-12-16T04:21:24;98595.78;;;-7.09;76.91
75996;BME280;64681;49.738;9.004;2022-12-16T04:24:17;98595.28;;;-6.94;75.85
75996;BME280;64681;49.738;9.004;2022-12-16T04:26:45;98554.44;;;-7.45;76.13
75996;BME280;64681;49.738;9.004;2022-12-16T04:29:32;98602.25;;;-7.12;76.68
75996;BME280;64681;49.738;9.004;2022-12-16T04:31:59;98578.25;;;-7.48;76.75
75996;BME280;64681;49.738;9.004;2022-12-16T04:34:25;98568.25;;;-7.27;75.87
75996;BME280;64681;49.738;9.004;2022-12-16T04:36:56;98628.59;;;-6.74;75.43
75996;BME280;64681;49.738;9.004;2022-12-16T04:39:41;98634.13;;;-6.54;74.16
75996;BME280;64681;49.738;9.004;2022-12-16T04:42:26;98624.84;;;-6.95;75.36
75996;BME280;64681;49.738;9.004;2022-12-16T04:45:30;98630.25;;;-6.97;75.42
75996;BME280;64681;49.738;9.004;2022-12-16T04:48:15;98638.69;;;-7.19;75.33
75996;BME280;64681;49.738;9.004;2022-12-16T04:50:59;98605.31;;;-7.56;76.49
75996;BME280;64681;49.738;9.004;2022-12-16T04:53:43;98648.63;;;-7.16;75.32
75996;BME280;64681;49.738;9.004;2022-12-16T04:56:27;98633.50;;;-7.19;75.32
75996;BME280;64681;49.738;9.004;2022-12-16T04:59:11;98646.72;;;-7.20;74.96
75996;BME280;64681;49.738;9.004;2022-12-16T05:01:56;98653.75;;;-7.33;75.59
75996;BME280;64681;49.738;9.004;2022-12-16T05:04:40;98645.78;;;-7.55;75.57
75996;BME280;64681;49.738;9.004;2022-12-16T05:07:24;98640.38;;;-7.65;75.73
75996;BME280;64681;49.738;9.004;2022-12-16T05:10:16;98659.41;;;-7.59;75.82
75996;BME280;64681;49.738;9.004;2022-12-16T05:13:00;98605.03;;;-7.95;75.56
75996;BME280;64681;49.738;9.004;2022-12-16T05:15:44;98642.75;;;-7.52;74.45
75996;BME280;64681;49.738;9.004;2022-12-16T05:18:28;98598.75;;;-7.87;74.57
75996;BME280;64681;49.738;9.004;2022-12-16T05:21:12;98658.84;;;-7.50;74.53
75996;BME280;64681;49.738;9.004;2022-12-16T05:23:57;98675.75;;;-7.47;74.38
75996;BME280;64681;49.738;9.004;2022-12-16T05:26:43;98642.78;;;-7.99;75.09
75996;BME280;64681;49.738;9.004;2022-12-16T05:29:27;98690.66;;;-8.02;76.36
75996;BME280;64681;49.738;9.004;2022-12-16T05:32:11;98676.22;;;-8.09;76.25
75996;BME280;64681;49.738;9.004;2022-12-16T05:34:55;98711.16;;;-7.88;75.99
75996;BME280;64681;49.738;9.004;2022-12-16T05:38:10;98693.38;;;-7.85;75.20
75996;BME280;64681;49.738;9.004;2022-12-16T05:40:58;98717.69;;;-7.74;74.74
75996;BME280;64681;49.738;9.004;2022-12-16T05:43:46;98662.38;;;-8.03;74.50
75996;BME280;64681;49.738;9.004;2022-12-16T05:46:31;98710.69;;;-7.61;74.32
75996;BME280;64681;49.738;9.004;2022-12-16T05:49:15;98716.69;;;-7.61;73.88
75996;BME280;64681;49.738;9.004;2022-12-16T05:51:59;98732.00;;;-7.59;73.48
75996;BME280;64681;49.738;9.004;2022-12-16T05:54:43;98726.03;;;-7.96;74.61
75996;BME280;64681;49.738;9.004;2022-12-16T05:57:27;98728.97;;;-8.34;75.87
75996;BME280;64681;49.738;9.004;2022-12-16T06:03:34;98732.72;;;-8.30;75.36
75996;BME280;64681;49.738;9.004;2022-12-16T06:06:18;98742.66;;;-8.03;74.79
75996;BME280;64681;49.738;9.004;2022-12-16T06:09:02;98737.56;;;-8.34;75.22
75996;BME280;64681;49.738;9.004;2022-12-16T06:11:48;98742.41;;;-8.25;73.92
75996;BME280;64681;49.738;9.004;2022-12-16T06:14:33;98767.38;;;-8.31;74.22
75996;BME280;64681;49.738;9.004;2022-12-16T06:17:18;98769.69;;;-8.11;73.28
75996;BME280;64681;49.738;9.004;2022-12-16T06:20:02;98759.63;;;-8.31;74.71
75996;BME280;64681;49.738;9.004;2022-12-16T06:22:51;98787.66;;;-8.28;73.89
75996;BME280;64681;49.738;9.004;2022-12-16T06:25:35;98770.66;;;-8.24;73.51
75996;BME280;64681;49.738;9.004;2022-12-16T06:28:20;98781.84;;;-8.12;73.15
75996;BME280;64681;49.738;9.004;2022-12-16T06:31:04;98773.16;;;-8.29;73.19
75996;BME280;64681;49.738;9.004;2022-12-16T06:33:48;98786.16;;;-8.36;73.95
75996;BME280;64681;49.738;9.004;2022-12-16T06:36:32;98814.69;;;-8.24;73.11
75996;BME280;64681;49.738;9.004;2022-12-16T06:39:16;98792.44;;;-8.55;74.31
75996;BME280;64681;49.738;9.004;2022-12-16T06:42:01;98818.88;;;-8.23;73.10
75996;BME280;64681;49.738;9.004;2022-12-16T06:44:45;98814.16;;;-8.45;73.38
75996;BME280;64681;49.738;9.004;2022-12-16T06:47:29;98817.94;;;-8.29;72.92
75996;BME280;64681;49.738;9.004;2022-12-16T06:50:13;98823.56;;;-8.81;74.00
75996;BME280;64681;49.738;9.004;2022-12-16T06:52:58;98829.31;;;-8.79;75.09
75996;BME280;64681;49.738;9.004;2022-12-16T06:55:42;98822.84;;;-8.69;74.12
75996;BME280;64681;49.738;9.004;2022-12-16T06:58:26;98837.78;;;-8.53;73.91
75996;BME280;64681;49.738;9.004;2022-12-16T07:01:10;98842.53;;;-8.50;73.06
75996;BME280;64681;49.738;9.004;2022-12-16T07:03:54;98823.13;;;-8.59;73.40
75996;BME280;64681;49.738;9.004;2022-12-16T07:06:38;98842.03;;;-8.59;73.34
75996;BME280;64681;49.738;9.004;2022-12-16T07:09:22;98844.31;;;-8.69;73.32
75996;BME280;64681;49.738;9.004;2022-12-16T07:12:06;98847.84;;;-9.00;74.75
75996;BME280;64681;49.738;9.004;2022-12-16T07:14:51;98834.50;;;-8.97;73.89
75996;BME280;64681;49.738;9.004;2022-12-16T07:17:38;98843.19;;;-8.73;73.16
75996;BME280;64681;49.738;9.004;2022-12-16T07:20:22;98858.72;;;-8.73;73.22
75996;BME280;64681;49.738;9.004;2022-12-16T07:23:06;98863.53;;;-8.58;72.32
75996;BME280;64681;49.738;9.004;2022-12-16T07:25:50;98865.53;;;-8.97;73.62
75996;BME280;64681;49.738;9.004;2022-12-16T07:28:34;98885.19;;;-9.40;75.78
75996;BME280;64681;49.738;9.004;2022-12-16T07:31:18;98899.53;;;-8.94;74.17
75996;BME280;64681;49.738;9.004;2022-12-16T07:34:02;98880.47;;;-8.81;73.69
75996;BME280;64681;49.738;9.004;2022-12-16T07:36:46;98889.41;;;-8.77;73.40
75996;BME280;64681;49.738;9.004;2022-12-16T07:39:30;98905.56;;;-8.81;72.79
75996;BME280;64681;49.738;9.004;2022-12-16T07:42:14;98900.81;;;-9.03;73.52
75996;BME280;64681;49.738;9.004;2022-12-16T07:44:58;98886.16;;;-8.91;73.25
75996;BME280;64681;49.738;9.004;2022-12-16T07:47:50;98907.25;;;-8.68;72.17
75996;BME280;64681;49.738;9.004;2022-12-16T07:50:35;98893.00;;;-8.78;72.97
75996;BME280;64681;49.738;9.004;2022-12-16T07:53:20;98916.53;;;-9.04;73.25
75996;BME280;64681;49.738;9.004;2022-12-16T07:56:05;98920.78;;;-9.17;75.61
75996;BME280;64681;49.738;9.004;2022-12-16T07:58:49;98918.28;;;-8.98;74.75
75996;BME280;64681;49.738;9.004;2022-12-16T08:01:33;98931.25;;;-9.05;73.82
75996;BME280;64681;49.738;9.004;2022-12-16T08:04:17;98946.03;;;-9.12;74.43
75996;BME280;64681;49.738;9.004;2022-12-16T08:07:01;98946.06;;;-8.68;73.63
75996;BME280;64681;49.738;9.004;2022-12-16T08:09:45;98948.88;;;-8.51;72.44
75996;BME280;64681;49.738;9.004;2022-12-16T08:12:29;98953.69;;;-8.36;72.28
75996;BME280;64681;49.738;9.004;2022-12-16T08:15:13;98946.19;;;-8.45;72.14
75996;BME280;64681;49.738;9.004;2022-12-16T08:17:57;98942.81;;;-8.45;71.55
75996;BME280;64681;49.738;9.004;2022-12-16T08:20:41;98949.16;;;-8.41;72.31
75996;BME280;64681;49.738;9.004;2022-12-16T08:23:25;98954.53;;;-8.24;71.92
75996;BME280;64681;49.738;9.004;2022-12-16T08:26:09;98960.84;;;-8.01;71.62
75996;BME280;64681;49.738;9.004;2022-12-16T08:28:55;98966.56;;;-8.11;71.70
75996;BME280;64681;49.738;9.004;2022-12-16T08:31:39;98974.09;;;-8.09;71.46
75996;BME280;64681;49.738;9.004;2022-12-16T08:34:23;98961.97;;;-8.09;71.10
75996;BME280;64681;49.738;9.004;2022-12-16T08:37:08;98991.19;;;-8.64;73.39
75996;BME280;64681;49.738;9.004;2022-12-16T08:39:52;98987.00;;;-8.84;75.00
75996;BME280;64681;49.738;9.004;2022-12-16T08:42:36;98980.84;;;-8.64;74.26
75996;BME280;64681;49.738;9.004;2022-12-16T08:45:21;98994.06;;;-8.72;73.90
75996;BME280;64681;49.738;9.004;2022-12-16T08:48:05;98986.63;;;-8.87;75.21
75996;BME280;64681;49.738;9.004;2022-12-16T08:50:49;98988.09;;;-9.24;75.81
75996;BME280;64681;49.738;9.004;2022-12-16T08:53:33;99010.22;;;-8.52;74.37
75996;BME280;64681;49.738;9.004;2022-12-16T08:56:18;98985.38;;;-8.22;72.70
75996;BME280;64681;49.738;9.004;2022-12-16T08:59:02;99006.47;;;-8.37;73.23
75996;BME280;64681;49.738;9.004;2022-12-16T09:01:46;99008.13;;;-8.43;73.34
75996;BME280;64681;49.738;9.004;2022-12-16T09:04:31;99013.13;;;-8.67;75.13
75996;BME280;64681;49.738;9.004;2022-12-16T09:07:15;98997.38;;;-8.65;75.00
75996;BME280;64681;49.738;9.004;2022-12-16T09:09:59;99004.19;;;-8.08;73.40
75996;BME280;64681;49.738;9.004;2022-12-16T09:12:43;99037.09;;;-8.34;75.29
75996;BME280;64681;49.738;9.004;2022-12-16T09:15:27;99036.88;;;-9.02;77.96
75996;BME280;64681;49.738;9.004;2022-12-16T09:18:11;99035.38;;;-8.59;76.50
75996;BME280;64681;49.738;9.004;2022-12-16T09:20:57;99050.66;;;-8.14;74.90
75996;BME280;64681;49.738;9.004;2022-12-16T09:23:41;99048.50;;;-8.35;75.20
75996;BME280;64681;49.738;9.004;2022-12-16T09:26:25;99054.13;;;-8.20;75.76
75996;BME280;64681;49.738;9.004;2022-12-16T09:29:09;99042.81;;;-8.25;76.23
75996;BME280;64681;49.738;9.004;2022-12-16T09:31:53;99041.63;;;-8.30;75.79
75996;BME280;64681;49.738;9.004;2022-12-16T09:34:37;99041.44;;;-8.09;75.03
75996;BME280;64681;49.738;9.004;2022-12-16T09:37:21;99048.88;;;-7.95;75.10
75996;BME280;64681;49.738;9.004;2022-12-16T09:40:05;99046.41;;;-8.08;76.81
75996;BME280;64681;49.738;9.004;2022-12-16T09:45:51;99065.84;;;-7.99;77.10
75996;BME280;64681;49.738;9.004;2022-12-16T09:51:51;99061.97;;;-7.89;76.32
75996;BME280;64681;49.738;9.004;2022-12-16T09:54:39;99066.13;;;-7.33;74.28
75996;BME280;64681;49.738;9.004;2022-12-16T09:57:28;99058.63;;;-7.41;75.38
75996;BME280;64681;49.738;9.004;2022-12-16T10:00:24;99062.56;;;-7.08;74.10
75996;BME280;64681;49.738;9.004;2022-12-16T10:03:42;99075.97;;;-7.23;75.17
75996;BME280;64681;49.738;9.004;2022-12-16T10:21:21;99060.88;;;-6.72;75.33
75996;BME280;64681;49.738;9.004;2022-12-16T10:24:32;99063.09;;;-6.87;75.80
75996;BME280;64681;49.738;9.004;2022-12-16T10:27:31;99036.13;;;-6.98;76.56
75996;BME280;64681;49.738;9.004;2022-12-16T10:30:19;99064.16;;;-6.64;76.26
75996;BME280;64681;49.738;9.004;2022-12-16T10:33:09;99055.69;;;-6.72;76.89
75996;BME280;64681;49.738;9.004;2022-12-16T10:35:55;99058.06;;;-6.58;77.47
75996;BME280;64681;49.738;9.004;2022-12-16T10:38:52;99062.72;;;-6.25;76.56
75996;BME280;64681;49.738;9.004;2022-12-16T10:41:42;99073.34;;;-6.14;76.66
75996;BME280;64681;49.738;9.004;2022-12-16T10:44:56;99075.97;;;-5.74;75.89
75996;BME280;64681;49.738;9.004;2022-12-16T10:47:39;99050.44;;;-5.89;76.52
75996;BME280;64681;49.738;9.004;2022-12-16T10:50:23;99082.44;;;-5.35;76.26
75996;BME280;64681;49.738;9.004;2022-12-16T10:53:14;99058.28;;;-5.19;74.29
75996;BME280;64681;49.738;9.004;2022-12-16T10:59:06;99080.63;;;-5.06;75.50
75996;BME280;64681;49.738;9.004;2022-12-16T11:02:20;99066.19;;;-5.14;75.88
75996;BME280;64681;49.738;9.004;2022-12-16T11:05:35;99072.78;;;-5.23;75.89
75996;BME280;64681;49.738;9.004;2022-12-16T11:08:26;99087.56;;;-5.41;77.40
75996;BME280;64681;49.738;9.004;2022-12-16T11:11:23;99094.56;;;-5.41;77.16
75996;BME280;64681;49.738;9.004;2022-12-16T11:17:17;99081.97;;;-5.03;76.62
75996;BME280;64681;49.738;9.004;2022-12-16T11:20:23;99067.41;;;-4.87;76.22
75996;BME280;64681;49.738;9.004;2022-12-16T11:23:19;99085.19;;;-4.84;76.52
75996;BME280;64681;49.738;9.004;2022-12-16T11:26:13;99079.44;;;-4.52;75.19
75996;BME280;64681;49.738;9.004;2022-12-16T11:29:17;99068.34;;;-4.59;74.91
75996;BME280;64681;49.738;9.004;2022-12-16T11:32:28;99083.75;;;-4.75;76.08
75996;BME280;64681;49.738;9.004;2022-12-16T11:35:18;99068.34;;;-4.94;76.74
75996;BME280;64681;49.738;9.004;2022-12-16T11:38:10;99081.41;;;-5.05;77.38
75996;BME280;64681;49.738;9.004;2022-12-16T11:40:58;99079.84;;;-4.61;76.83
75996;BME280;64681;49.738;9.004;2022-12-16T11:43:48;99061.97;;;-4.52;75.98
75996;BME280;64681;49.738;9.004;2022-12-16T11:46:34;99087.00;;;-4.34;75.89
75996;BME280;64681;49.738;9.004;2022-12-16T11:49:31;99086.19;;;-4.17;75.29
75996;BME280;64681;49.738;9.004;2022-12-16T11:52:19;99074.28;;;-4.30;75.51
75996;BME280;64681;49.738;9.004;2022-12-16T12:01:17;99109.16;;;-4.82;78.67
75996;BME280;64681;49.738;9.004;2022-12-16T12:04:04;99085.72;;;-4.82;78.16
75996;BME280;64681;49.738;9.004;2022-12-16T12:13:04;99094.50;;;-4.03;75.89
75996;BME280;64681;49.738;9.004;2022-12-16T12:16:17;99105.38;;;-4.06;76.23
75996;BME280;64681;49.738;9.004;2022-12-16T12:19:25;99095.06;;;-4.35;77.09
75996;BME280;64681;49.738;9.004;2022-12-16T12:22:34;99124.09;;;-4.09;76.68
75996;BME280;64681;49.738;9.004;2022-12-16T13:06:41;99166.69;;;-3.70;76.61
75996;BME280;64681;49.738;9.004;2022-12-16T13:13:45;99164.84;;;-3.69;76.29
75996;BME280;64681;49.738;9.004;2022-12-16T13:30:36;99174.34;;;-3.80;78.07
75996;BME280;64681;49.738;9.004;2022-12-16T13:53:51;99196.41;;;-3.31;75.40
75996;BME280;64681;49.738;9.004;2022-12-16T13:56:47;99191.28;;;-3.21;74.70
75996;BME280;64681;49.738;9.004;2022-12-16T13:59:49;99215.44;;;-3.53;76.22
75996;BME280;64681;49.738;9.004;2022-12-16T14:02:39;99201.91;;;-3.50;76.03
75996;BME280;64681;49.738;9.004;2022-12-16T14:08:48;99224.63;;;-4.02;78.37
75996;BME280;64681;49.738;9.004;2022-12-16T14:11:52;99235.69;;;-3.77;77.44
75996;BME280;64681;49.738;9.004;2022-12-16T14:18:52;99152.41;;;-4.52;77.69
75996;BME280;64681;49.738;9.004;2022-12-16T14:22:12;99241.22;;;-4.08;78.93
75996;BME280;64681;49.738;9.004;2022-12-16T14:25:25;99246.06;;;-3.83;78.36
75996;BME280;64681;49.738;9.004;2022-12-16T14:28:27;99261.38;;;-3.35;76.42
75996;BME280;64681;49.738;9.004;2022-12-16T14:31:37;99252.63;;;-3.24;75.73
75996;BME280;64681;49.738;9.004;2022-12-16T14:34:27;99261.22;;;-3.62;77.34
75996;BME280;64681;49.738;9.004;2022-12-16T14:41:24;99237.22;;;-4.27;78.15
75996;BME280;64681;49.738;9.004;2022-12-16T14:44:24;99267.84;;;-4.06;78.95
75996;BME280;64681;49.738;9.004;2022-12-16T14:47:19;99284.16;;;-4.27;80.05
75996;BME280;64681;49.738;9.004;2022-12-16T14:50:18;99282.19;;;-3.91;78.54
75996;BME280;64681;49.738;9.004;2022-12-16T14:53:19;99263.50;;;-3.83;77.07
75996;BME280;64681;49.738;9.004;2022-12-16T14:56:21;99276.03;;;-3.85;78.46
75996;BME280;64681;49.738;9.004;2022-12-16T14:59:15;99270.47;;;-3.89;78.10
75996;BME280;64681;49.738;9.004;2022-12-16T15:02:20;99269.78;;;-3.67;77.38
75996;BME280;64681;49.738;9.004;2022-12-16T15:05:09;99244.22;;;-3.82;77.46
75996;BME280;64681;49.738;9.004;2022-12-16T15:07:56;99260.69;;;-3.64;77.31
75996;BME280;64681;49.738;9.004;2022-12-16T15:11:04;99247.53;;;-4.04;79.09
75996;BME280;64681;49.738;9.004;2022-12-16T15:13:55;99301.88;;;-3.50;78.89
75996;BME280;64681;49.738;9.004;2022-12-16T15:16:43;99292.38;;;-3.73;79.78
75996;BME280;64681;49.738;9.004;2022-12-16T15:19:36;99279.25;;;-3.61;78.75
75996;BME280;64681;49.738;9.004;2022-12-16T15:22:23;99306.84;;;-2.92;77.94
75996;BME280;64681;49.738;9.004;2022-12-16T15:25:18;99241.25;;;-3.35;76.96
75996;BME280;64681;49.738;9.004;2022-12-16T15:28:03;99321.56;;;-2.86;76.73
75996;BME280;64681;49.738;9.004;2022-12-16T15:30:48;99319.94;;;-2.69;76.36
75996;BME280;64681;49.738;9.004;2022-12-16T15:33:35;99310.53;;;-2.71;74.52
75996;BME280;64681;49.738;9.004;2022-12-16T15:39:21;99215.72;;;-4.52;78.23
75996;BME280;64681;49.738;9.004;2022-12-16T15:42:20;99336.03;;;-4.55;81.10
75996;BME280;64681;49.738;9.004;2022-12-16T15:45:19;99346.72;;;-4.92;81.91
75996;BME280;64681;49.738;9.004;2022-12-16T15:48:27;99362.34;;;-5.04;83.80
75996;BME280;64681;49.738;9.004;2022-12-16T15:51:31;99374.00;;;-4.71;82.06
75996;BME280;64681;49.738;9.004;2022-12-16T15:54:23;99376.72;;;-4.66;80.82
75996;BME280;64681;49.738;9.004;2022-12-16T15:57:27;99389.03;;;-4.49;79.01
75996;BME280;64681;49.738;9.004;2022-12-16T16:06:02;99335.72;;;-4.94;77.99
75996;BME280;64681;49.738;9.004;2022-12-16T16:08:50;99384.09;;;-4.74;79.14
75996;BME280;64681;49.738;9.004;2022-12-16T16:11:35;99378.28;;;-5.36;81.42
75996;BME280;64681;49.738;9.004;2022-12-16T16:14:19;99398.94;;;-5.11;80.11
75996;BME280;64681;49.738;9.004;2022-12-16T16:17:21;99354.31;;;-5.26;79.60
75996;BME280;64681;49.738;9.004;2022-12-16T16:20:12;99370.72;;;-4.90;78.06
75996;BME280;64681;49.738;9.004;2022-12-16T16:22:57;99362.13;;;-5.14;78.59
75996;BME280;64681;49.738;9.004;2022-12-16T16:25:42;99426.69;;;-4.69;79.30
75996;BME280;64681;49.738;9.004;2022-12-16T16:28:26;99422.16;;;-4.73;78.69
75996;BME280;64681;49.738;9.004;2022-12-16T16:31:10;99409.13;;;-4.73;77.28
75996;BME280;64681;49.738;9.004;2022-12-16T16:33:54;99405.88;;;-5.35;80.19
75996;BME280;64681;49.738;9.004;2022-12-16T16:36:55;99420.88;;;-4.95;79.30
75996;BME280;64681;49.738;9.004;2022-12-16T16:39:40;99428.03;;;-4.90;78.13
75996;BME280;64681;49.738;9.004;2022-12-16T16:42:24;99412.81;;;-5.17;78.97
75996;BME280;64681;49.738;9.004;2022-12-16T16:45:09;99410.41;;;-5.42;80.22
75996;BME280;64681;49.738;9.004;2022-12-16T16:48:20;99434.78;;;-5.55;80.82
75996;BME280;64681;49.738;9.004;2022-12-16T16:51:04;99407.47;;;-5.34;78.49
75996;BME280;64681;49.738;9.004;2022-12-16T16:53:48;99444.06;;;-5.29;79.27
75996;BME280;64681;49.738;9.004;2022-12-16T16:56:34;99438.25;;;-5.43;79.04
75996;BME280;64681;49.738;9.004;2022-12-16T16:59:23;99435.38;;;-5.53;79.34
75996;BME280;64681;49.738;9.004;2022-12-16T17:02:17;99449.34;;;-5.35;78.75
75996;BME280;64681;49.738;9.004;2022-12-16T17:05:01;99451.28;;;-5.31;78.16
75996;BME280;64681;49.738;9.004;2022-12-16T17:07:45;99454.28;;;-5.46;78.42
75996;BME280;64681;49.738;9.004;2022-12-16T17:10:30;99468.81;;;-5.38;78.07
75996;BME280;64681;49.738;9.004;2022-12-16T17:13:14;99448.06;;;-5.45;77.40
75996;BME280;64681;49.738;9.004;2022-12-16T17:15:58;99455.88;;;-5.45;77.44
75996;BME280;64681;49.738;9.004;2022-12-16T17:18:42;99465.34;;;-5.50;77.91
75996;BME280;64681;49.738;9.004;2022-12-16T17:21:29;99489.38;;;-5.36;77.78
75996;BME280;64681;49.738;9.004;2022-12-16T17:24:13;99442.47;;;-5.60;77.94